Time;durP1;ratioP1;P1;durP2;ratioP2;P2;SDS_P1;SDS_P2;PMS_P1;PMS_P2;Temp;Humidity;BMP_temperature;BMP_pressure;BME280_temperature;BME280_humidity;BME280_pressure;Samples;Min_cycle;Max_cycle;Signal;HPM_P1;HPM_P2
2021/05/22 00:01:55;;;;;;;4.05;1.60;;;11.60;99.90;;;;;;5007146;28;20217;-77
2021/05/22 00:04:22;;;;;;;5.07;2.20;;;11.80;99.90;;;;;;5004330;28;20221;-77
2021/05/22 00:15:12;;;;;;;5.28;2.50;;;11.90;99.90;;;;;;5043085;22;20227;-78
2021/05/22 00:18:10;;;;;;;3.78;1.77;;;12.00;99.90;;;;;;5034326;28;20196;-78
2021/05/22 00:21:47;;;;;;;3.38;2.03;;;12.00;99.90;;;;;;4979998;28;20223;-78
2021/05/22 00:24:32;;;;;;;4.35;1.67;;;12.00;99.90;;;;;;5029301;28;20307;-77
2021/05/22 00:27:59;;;;;;;2.80;1.55;;;12.00;99.90;;;;;;4998830;28;20199;-77
2021/05/22 00:30:26;;;;;;;4.15;1.70;;;12.00;99.90;;;;;;5035013;28;20195;-78
2021/05/22 00:32:53;;;;;;;2.90;1.50;;;11.90;99.90;;;;;;5012758;28;20220;-78
2021/05/22 00:35:19;;;;;;;6.88;2.17;;;11.80;99.90;;;;;;5014342;28;20251;-78
2021/05/22 00:37:46;;;;;;;4.50;1.95;;;11.60;99.90;;;;;;5014606;28;20197;-78
2021/05/22 00:40:13;;;;;;;3.25;1.95;;;11.60;99.90;;;;;;5010471;28;20200;-79
2021/05/22 00:42:41;;;;;;;11.48;2.25;;;11.50;99.90;;;;;;5024001;28;20302;-77
2021/05/22 00:45:13;;;;;;;4.32;1.80;;;11.40;99.90;;;;;;5035717;28;20223;-77
2021/05/22 00:47:43;;;;;;;3.95;1.95;;;11.50;99.90;;;;;;5008278;28;20224;-78
2021/05/22 00:50:13;;;;;;;2.83;1.55;;;11.50;99.90;;;;;;5012674;28;20259;-77
2021/05/22 00:52:40;;;;;;;3.15;1.50;;;11.70;99.90;;;;;;5000089;28;20234;-78
2021/05/22 00:55:08;;;;;;;5.32;1.83;;;11.70;99.90;;;;;;5028041;28;20211;-78
2021/05/22 00:57:36;;;;;;;2.65;1.58;;;11.70;99.90;;;;;;5038772;28;20220;-77
2021/05/22 01:00:04;;;;;;;5.32;1.75;;;11.70;99.90;;;;;;5014279;28;20220;-78
2021/05/22 01:02:31;;;;;;;3.33;1.73;;;11.60;99.90;;;;;;5003616;28;20313;-77
2021/05/22 01:05:05;;;;;;;3.72;1.38;;;11.50;99.90;;;;;;5016070;28;20212;-78
2021/05/22 01:07:34;;;;;;;6.03;2.03;;;11.50;99.90;;;;;;5036213;28;20279;-77
2021/05/22 01:10:12;;;;;;;2.25;1.52;;;11.40;99.90;;;;;;5018280;28;20223;-78
2021/05/22 01:12:43;;;;;;;5.25;1.70;;;11.40;99.90;;;;;;5021149;28;20193;-78
2021/05/22 01:15:13;;;;;;;3.53;1.60;;;11.40;99.90;;;;;;5018192;28;20232;-77
2021/05/22 01:17:47;;;;;;;5.07;2.35;;;11.30;99.90;;;;;;5033884;28;20736;-78
2021/05/22 01:20:29;;;;;;;3.33;1.42;;;11.20;99.90;;;;;;5036903;28;20196;-77
2021/05/22 01:23:01;;;;;;;4.75;2.00;;;11.20;99.90;;;;;;5033808;28;20267;-78
2021/05/22 01:25:30;;;;;;;3.13;1.83;;;11.20;99.90;;;;;;5031111;28;20264;-77
2021/05/22 01:27:59;;;;;;;1.88;1.23;;;11.20;99.90;;;;;;5033074;28;20608;-78
2021/05/22 01:30:27;;;;;;;1.95;1.27;;;11.30;99.90;;;;;;5025310;28;20215;-78
2021/05/22 01:32:54;;;;;;;4.57;1.42;;;11.20;99.90;;;;;;5026424;28;20196;-77
2021/05/22 01:35:22;;;;;;;3.22;1.42;;;11.20;99.90;;;;;;5022438;28;20227;-77
2021/05/22 01:37:49;;;;;;;7.40;1.95;;;11.20;99.90;;;;;;5031723;28;20206;-77
2021/05/22 01:40:16;;;;;;;2.60;1.55;;;11.20;99.90;;;;;;5042784;28;20223;-78
2021/05/22 01:42:44;;;;;;;2.85;1.33;;;11.10;99.90;;;;;;5016858;28;20224;-77
2021/05/22 01:45:14;;;;;;;3.53;1.70;;;11.10;99.90;;;;;;5018532;28;20216;-78
2021/05/22 01:47:43;;;;;;;2.85;1.73;;;11.10;99.90;;;;;;5018155;28;20196;-78
2021/05/22 01:50:11;;;;;;;3.58;1.58;;;11.00;99.90;;;;;;5026515;28;20226;-78
2021/05/22 01:52:42;;;;;;;2.28;1.45;;;11.00;99.90;;;;;;4993076;28;20559;-78
2021/05/22 01:55:11;;;;;;;3.13;1.90;;;10.90;99.90;;;;;;5015352;28;20485;-78
2021/05/22 01:57:39;;;;;;;3.28;1.73;;;10.80;99.90;;;;;;5025947;28;20229;-77
2021/05/22 02:00:08;;;;;;;2.53;1.58;;;10.90;99.90;;;;;;5039209;28;20619;-77
2021/05/22 02:02:47;;;;;;;6.68;1.58;;;10.80;99.90;;;;;;5023360;28;20261;-78
2021/05/22 02:05:17;;;;;;;6.97;1.77;;;10.80;99.90;;;;;;5034368;28;20246;-78
2021/05/22 02:07:46;;;;;;;3.00;1.50;;;10.90;99.90;;;;;;5014710;28;20283;-78
2021/05/22 02:10:13;;;;;;;2.83;1.45;;;10.80;99.90;;;;;;5021958;28;20228;-76
2021/05/22 02:12:42;;;;;;;2.00;1.00;;;10.70;99.90;;;;;;5009490;28;20322;-75
2021/05/22 02:15:12;;;;;;;2.47;1.27;;;10.60;99.90;;;;;;5003600;28;20234;-75
2021/05/22 02:17:41;;;;;;;1.75;1.42;;;10.70;99.90;;;;;;5016231;28;20197;-75
2021/05/22 02:20:10;;;;;;;3.85;1.65;;;10.70;99.90;;;;;;5026714;28;20288;-78
2021/05/22 02:22:41;;;;;;;2.80;1.10;;;10.70;99.90;;;;;;5011373;28;20227;-78
2021/05/22 02:25:09;;;;;;;2.45;1.38;;;10.70;99.90;;;;;;5009023;28;20266;-78
2021/05/22 02:27:36;;;;;;;1.85;1.60;;;10.70;99.90;;;;;;5034677;28;20271;-78
2021/05/22 02:30:06;;;;;;;4.68;1.55;;;10.60;99.90;;;;;;5016375;28;20224;-79
2021/05/22 02:32:35;;;;;;;4.72;1.73;;;10.50;99.90;;;;;;5013978;28;20328;-76
2021/05/22 02:35:04;;;;;;;4.88;1.75;;;10.40;99.90;;;;;;5007295;28;20208;-76
2021/05/22 02:37:33;;;;;;;3.50;1.58;;;10.40;99.90;;;;;;5003439;28;20246;-76
2021/05/22 02:40:03;;;;;;;1.35;1.08;;;10.40;99.90;;;;;;5005846;28;20192;-75
2021/05/22 02:42:32;;;;;;;2.50;1.98;;;10.40;99.90;;;;;;5032493;28;20215;-77
2021/05/22 02:45:00;;;;;;;3.03;1.55;;;10.40;99.90;;;;;;5008877;28;20212;-77
2021/05/22 02:47:29;;;;;;;2.30;0.90;;;10.40;99.90;;;;;;5007565;28;20203;-77
2021/05/22 02:50:03;;;;;;;6.10;1.58;;;10.30;99.90;;;;;;5024963;28;20679;-76
2021/05/22 02:52:31;;;;;;;4.57;1.98;;;10.40;99.90;;;;;;5026764;28;20283;-77
2021/05/22 02:54:59;;;;;;;2.28;1.00;;;10.30;99.90;;;;;;5028466;28;20711;-76
2021/05/22 02:57:27;;;;;;;3.17;1.38;;;10.30;99.90;;;;;;4985294;28;20679;-77
2021/05/22 02:59:56;;;;;;;2.47;1.23;;;10.40;99.90;;;;;;5033096;28;20915;-77
2021/05/22 03:02:24;;;;;;;5.20;1.20;;;10.40;99.90;;;;;;5032375;28;20228;-77
2021/05/22 03:04:50;;;;;;;1.90;1.48;;;10.40;99.90;;;;;;4982103;28;20216;-76
2021/05/22 03:07:20;;;;;;;4.45;1.88;;;10.30;99.90;;;;;;4998756;28;20211;-77
2021/05/22 03:09:48;;;;;;;5.07;1.42;;;10.30;99.90;;;;;;5036649;28;20196;-77
2021/05/22 03:12:19;;;;;;;2.88;1.20;;;10.30;99.90;;;;;;5028250;28;20197;-77
2021/05/22 03:14:46;;;;;;;2.78;1.88;;;10.30;99.90;;;;;;5021353;28;20703;-77
2021/05/22 03:17:13;;;;;;;1.65;1.27;;;10.20;99.90;;;;;;5021161;28;20573;-78
2021/05/22 03:19:40;;;;;;;2.45;1.50;;;10.20;99.90;;;;;;5019701;28;20208;-78
2021/05/22 03:22:06;;;;;;;1.80;1.52;;;10.10;99.90;;;;;;5014649;28;20208;-77
2021/05/22 03:24:34;;;;;;;6.28;1.45;;;10.10;99.90;;;;;;5017026;28;20213;-77
2021/05/22 03:27:01;;;;;;;4.07;1.50;;;10.10;99.90;;;;;;4997149;28;20691;-77
2021/05/22 03:29:27;;;;;;;3.67;1.42;;;10.10;99.90;;;;;;5032962;28;20211;-77
2021/05/22 03:31:54;;;;;;;4.57;1.77;;;10.10;99.90;;;;;;4999203;28;20201;-76
2021/05/22 03:34:21;;;;;;;4.38;1.30;;;10.00;99.90;;;;;;4998723;28;20220;-78
2021/05/22 03:36:47;;;;;;;3.95;1.20;;;10.00;99.90;;;;;;5031139;28;20188;-77
2021/05/22 03:39:14;;;;;;;4.85;1.77;;;10.00;99.90;;;;;;5015870;28;20196;-76
2021/05/22 03:41:42;;;;;;;2.75;1.70;;;10.00;99.90;;;;;;5001171;28;20244;-76
2021/05/22 03:44:08;;;;;;;5.75;2.35;;;10.00;99.90;;;;;;5028586;23;20715;-77
2021/05/22 03:46:38;;;;;;;1.83;1.48;;;10.00;99.90;;;;;;5019477;28;20200;-77
2021/05/22 03:49:06;;;;;;;2.20;1.48;;;9.90;99.90;;;;;;5032617;28;20213;-77
2021/05/22 03:51:33;;;;;;;5.43;1.20;;;9.90;99.90;;;;;;5025232;28;20199;-77
2021/05/22 03:54:00;;;;;;;2.67;1.50;;;10.00;99.90;;;;;;5013423;28;20252;-75
2021/05/22 03:56:37;;;;;;;3.33;1.45;;;9.90;99.90;;;;;;5015145;28;20189;-76
2021/05/22 03:59:04;;;;;;;4.53;1.88;;;9.90;99.90;;;;;;5009428;28;20210;-76
2021/05/22 04:01:32;;;;;;;3.08;1.40;;;9.80;99.90;;;;;;5024445;28;20232;-77
2021/05/22 04:04:03;;;;;;;3.13;1.83;;;9.80;99.90;;;;;;5041971;28;20212;-76
2021/05/22 04:06:32;;;;;;;2.15;1.40;;;10.10;99.90;;;;;;5054561;28;20195;-77
2021/05/22 04:08:59;;;;;;;1.92;1.25;;;10.20;99.90;;;;;;5042300;28;20197;-76
2021/05/22 04:11:26;;;;;;;2.28;1.70;;;10.30;99.90;;;;;;5040964;28;20200;-76
2021/05/22 04:13:52;;;;;;;3.65;1.67;;;10.40;99.90;;;;;;5033983;28;20272;-77
2021/05/22 04:16:21;;;;;;;4.03;1.77;;;10.30;99.90;;;;;;5040924;28;20204;-77
2021/05/22 04:18:55;;;;;;;6.07;1.50;;;10.20;99.90;;;;;;5019542;28;20228;-77
2021/05/22 04:21:31;;;;;;;4.20;1.50;;;10.20;99.90;;;;;;5023586;28;20216;-76
2021/05/22 04:23:57;;;;;;;4.95;1.90;;;10.10;99.90;;;;;;5030774;28;20220;-77
2021/05/22 04:26:24;;;;;;;5.70;2.10;;;10.10;99.90;;;;;;5023940;28;20246;-76
2021/05/22 04:28:50;;;;;;;4.43;2.05;;;10.00;99.90;;;;;;5017268;28;20223;-76
2021/05/22 04:31:17;;;;;;;4.80;1.50;;;10.00;99.90;;;;;;5029994;28;20200;-78
2021/05/22 04:33:45;;;;;;;5.35;2.53;;;10.00;99.90;;;;;;5016064;28;20213;-77
2021/05/22 04:36:11;;;;;;;4.90;1.73;;;9.90;99.90;;;;;;5024136;28;20196;-78
2021/05/22 04:38:38;;;;;;;3.47;1.38;;;10.00;99.90;;;;;;5022798;28;20251;-77
2021/05/22 04:41:04;;;;;;;3.75;1.40;;;10.10;99.90;;;;;;5016545;28;20260;-78
2021/05/22 04:43:31;;;;;;;5.22;2.03;;;10.20;99.90;;;;;;5020307;28;20278;-77
2021/05/22 04:45:58;;;;;;;5.05;1.48;;;10.20;99.90;;;;;;5017834;28;20580;-77
2021/05/22 04:48:25;;;;;;;4.95;1.55;;;10.30;99.90;;;;;;5023721;28;20203;-77
2021/05/22 04:50:54;;;;;;;2.80;1.55;;;10.40;99.90;;;;;;5023169;28;20391;-78
2021/05/22 04:53:21;;;;;;;4.07;1.42;;;10.50;99.90;;;;;;5034479;28;20229;-77
2021/05/22 04:55:48;;;;;;;6.32;2.00;;;10.40;99.90;;;;;;5027184;28;20691;-78
2021/05/22 04:58:14;;;;;;;5.75;2.03;;;10.30;99.90;;;;;;5023504;28;20671;-77
2021/05/22 05:00:44;;;;;;;4.10;1.40;;;10.40;99.90;;;;;;5030644;28;20201;-78
2021/05/22 05:03:10;;;;;;;2.63;1.23;;;10.50;99.90;;;;;;5026984;28;20686;-78
2021/05/22 05:05:37;;;;;;;3.55;1.58;;;10.60;99.90;;;;;;5030207;28;20243;-78
2021/05/22 05:08:05;;;;;;;1.40;1.25;;;10.70;99.90;;;;;;5027862;28;20189;-77
2021/05/22 05:10:31;;;;;;;1.90;1.60;;;10.70;99.90;;;;;;5043761;28;20188;-78
2021/05/22 05:12:58;;;;;;;4.30;1.52;;;10.80;99.90;;;;;;5036928;28;20189;-78
2021/05/22 05:15:25;;;;;;;5.13;1.30;;;11.10;99.90;;;;;;5032088;28;20235;-78
2021/05/22 05:17:52;;;;;;;2.83;1.40;;;11.00;99.90;;;;;;5031978;28;20617;-78
2021/05/22 05:20:19;;;;;;;3.10;1.48;;;11.00;99.90;;;;;;5031273;28;20199;-78
2021/05/22 05:22:50;;;;;;;2.10;1.45;;;11.20;99.90;;;;;;5027860;28;20219;-78
2021/05/22 05:25:18;;;;;;;2.60;1.58;;;11.30;99.90;;;;;;5029221;28;20235;-78
2021/05/22 05:27:45;;;;;;;4.95;2.58;;;11.40;99.90;;;;;;5031186;28;20196;-78
2021/05/22 05:30:13;;;;;;;10.18;1.90;;;11.60;99.90;;;;;;5028657;28;20231;-79
2021/05/22 05:32:39;;;;;;;2.03;1.20;;;11.60;99.90;;;;;;5029084;28;20228;-78
2021/05/22 05:35:09;;;;;;;2.17;1.40;;;11.70;99.90;;;;;;5026529;28;20231;-78
2021/05/22 05:37:37;;;;;;;2.95;1.10;;;11.70;99.90;;;;;;5027840;28;20200;-78
2021/05/22 05:40:04;;;;;;;3.20;1.45;;;11.70;99.90;;;;;;5028775;28;20614;-78
2021/05/22 05:42:32;;;;;;;7.72;2.58;;;11.70;99.90;;;;;;5025666;28;20217;-78
2021/05/22 05:44:58;;;;;;;1.42;1.30;;;11.80;99.90;;;;;;5033845;28;20219;-79
2021/05/22 05:47:24;;;;;;;3.42;1.70;;;12.00;99.90;;;;;;5036022;28;20207;-78
2021/05/22 05:49:51;;;;;;;1.88;1.58;;;12.00;99.90;;;;;;5034789;28;20636;-79
2021/05/22 05:52:17;;;;;;;4.65;1.80;;;12.10;99.90;;;;;;5030326;28;20600;-78
2021/05/22 05:54:44;;;;;;;7.18;1.92;;;12.20;99.90;;;;;;5032309;28;20236;-78
2021/05/22 05:57:11;;;;;;;3.67;1.55;;;12.30;99.90;;;;;;5031606;28;20204;-80
2021/05/22 05:59:38;;;;;;;4.78;1.95;;;12.30;99.90;;;;;;5031216;28;20259;-80
2021/05/22 06:02:05;;;;;;;4.00;1.98;;;12.30;99.90;;;;;;5027861;28;20247;-77
2021/05/22 06:04:32;;;;;;;3.20;1.20;;;12.30;99.90;;;;;;5029375;28;20299;-80
2021/05/22 06:06:59;;;;;;;4.38;1.73;;;12.20;99.90;;;;;;5028600;28;20196;-77
2021/05/22 06:09:25;;;;;;;2.75;1.38;;;12.30;99.90;;;;;;5030760;28;20242;-78
2021/05/22 06:11:53;;;;;;;5.80;1.80;;;12.40;99.90;;;;;;5031074;28;20192;-78
2021/05/22 06:14:27;;;;;;;4.55;1.98;;;12.40;99.90;;;;;;5030616;28;20270;-80
2021/05/22 06:16:57;;;;;;;3.60;1.25;;;12.40;99.90;;;;;;5029280;28;20234;-78
2021/05/22 06:19:24;;;;;;;6.90;2.42;;;12.20;99.90;;;;;;5032967;28;20204;-78
2021/05/22 06:21:51;;;;;;;5.80;1.77;;;12.30;99.90;;;;;;5040050;28;20263;-77
2021/05/22 06:24:18;;;;;;;3.17;1.30;;;12.40;99.90;;;;;;5041203;28;20271;-78
2021/05/22 06:26:45;;;;;;;5.78;1.30;;;12.50;99.90;;;;;;5026791;28;20369;-77
2021/05/22 06:29:13;;;;;;;5.50;1.55;;;12.50;99.90;;;;;;5028199;28;20263;-78
2021/05/22 06:31:40;;;;;;;6.28;1.85;;;12.40;99.90;;;;;;5035628;28;20195;-77
2021/05/22 06:34:07;;;;;;;3.83;1.55;;;12.40;99.90;;;;;;5033257;28;20294;-78
2021/05/22 06:36:34;;;;;;;6.28;1.42;;;12.50;99.90;;;;;;5032361;28;20278;-80
2021/05/22 06:39:01;;;;;;;4.13;1.27;;;12.40;99.90;;;;;;5025565;28;20247;-78
2021/05/22 06:41:27;;;;;;;3.22;1.58;;;12.30;99.90;;;;;;5016856;28;20199;-78
2021/05/22 06:43:54;;;;;;;2.88;1.73;;;12.20;99.90;;;;;;5025762;28;20239;-78
2021/05/22 06:49:06;;;;;;;4.03;1.30;;;12.30;99.90;;;;;;5035333;28;20201;-78
2021/05/22 06:51:33;;;;;;;3.45;1.67;;;12.20;99.90;;;;;;5030089;28;20207;-78
2021/05/22 06:54:00;;;;;;;2.42;2.22;;;12.30;99.90;;;;;;5040247;28;20215;-77
2021/05/22 06:56:27;;;;;;;7.25;1.52;;;12.30;99.90;;;;;;5024569;28;20203;-78
2021/05/22 06:58:55;;;;;;;5.85;2.10;;;12.20;99.90;;;;;;5031487;28;20188;-77
2021/05/22 07:01:22;;;;;;;4.20;1.98;;;12.30;99.90;;;;;;5026579;28;20205;-78
2021/05/22 07:03:49;;;;;;;3.00;1.60;;;12.30;99.90;;;;;;5030075;28;20307;-77
2021/05/22 07:06:17;;;;;;;2.85;1.50;;;12.30;99.90;;;;;;5034785;28;20200;-78
2021/05/22 07:08:43;;;;;;;4.93;1.40;;;12.40;99.90;;;;;;5024497;28;20200;-78
2021/05/22 07:11:09;;;;;;;8.20;1.83;;;12.40;99.90;;;;;;5035996;28;20215;-78
2021/05/22 07:13:36;;;;;;;4.35;1.67;;;12.50;99.90;;;;;;5026729;28;20231;-78
2021/05/22 07:16:04;;;;;;;2.42;1.60;;;12.50;99.90;;;;;;5036333;28;20282;-79
2021/05/22 07:18:31;;;;;;;4.45;1.40;;;12.50;99.90;;;;;;5031764;28;20621;-80
2021/05/22 07:20:58;;;;;;;3.70;1.40;;;12.40;99.90;;;;;;5030504;28;20745;-77
2021/05/22 07:23:26;;;;;;;3.20;1.75;;;12.20;99.90;;;;;;5033425;28;20749;-77
2021/05/22 07:25:53;;;;;;;3.83;2.20;;;12.10;99.90;;;;;;5034984;28;20675;-80
2021/05/22 07:28:19;;;;;;;2.38;1.63;;;12.20;99.90;;;;;;5036434;28;20205;-78
2021/05/22 07:30:46;;;;;;;3.45;1.60;;;12.20;99.90;;;;;;5022744;28;20197;-77
2021/05/22 07:33:14;;;;;;;3.28;1.30;;;12.30;99.90;;;;;;5029257;28;20216;-78
2021/05/22 07:35:41;;;;;;;1.85;1.40;;;12.20;99.90;;;;;;5029076;28;20185;-77
2021/05/22 07:38:07;;;;;;;4.28;1.73;;;12.20;99.90;;;;;;5023655;28;20227;-78
2021/05/22 07:40:35;;;;;;;1.33;1.23;;;12.30;99.90;;;;;;5030275;28;20202;-78
2021/05/22 07:43:02;;;;;;;1.67;1.30;;;12.30;99.90;;;;;;5020137;28;20260;-78
2021/05/22 07:45:30;;;;;;;2.72;1.40;;;12.40;99.90;;;;;;5033660;28;20211;-78
2021/05/22 07:47:56;;;;;;;4.20;2.10;;;12.50;99.90;;;;;;5038109;28;20227;-77
2021/05/22 07:50:23;;;;;;;3.83;1.55;;;12.60;99.90;;;;;;5025523;28;20734;-77
2021/05/22 07:52:50;;;;;;;5.93;1.95;;;12.60;99.90;;;;;;5038316;28;20192;-78
2021/05/22 07:55:26;;;;;;;4.57;2.08;;;12.50;99.90;;;;;;5029421;28;20220;-77
2021/05/22 07:58:15;;;;;;;5.88;1.25;;;12.50;99.90;;;;;;5031309;28;20212;-78
2021/05/22 08:00:43;;;;;;;7.00;1.60;;;12.60;99.90;;;;;;5017896;28;20706;-77
2021/05/22 08:03:10;;;;;;;6.32;1.77;;;12.60;99.90;;;;;;5026441;28;20216;-78
2021/05/22 08:05:37;;;;;;;6.55;2.42;;;12.80;99.90;;;;;;5019880;28;20319;-79
2021/05/22 08:08:04;;;;;;;4.20;1.35;;;12.80;99.90;;;;;;5019587;28;20399;-76
2021/05/22 08:10:31;;;;;;;3.42;1.52;;;12.90;99.90;;;;;;5019003;28;20207;-78
2021/05/22 08:12:59;;;;;;;4.40;1.85;;;13.00;99.90;;;;;;5027208;28;20597;-76
2021/05/22 08:15:27;;;;;;;3.95;1.75;;;13.00;99.90;;;;;;5017690;28;20199;-77
2021/05/22 08:17:53;;;;;;;4.13;1.52;;;12.90;99.90;;;;;;5025360;28;20192;-77
2021/05/22 08:20:20;;;;;;;4.07;1.33;;;13.10;99.90;;;;;;5021971;28;20271;-77
2021/05/22 08:22:48;;;;;;;3.53;1.63;;;13.10;99.90;;;;;;5032068;28;20604;-78
2021/05/22 08:25:16;;;;;;;4.88;1.52;;;13.20;99.90;;;;;;5035036;28;20208;-79
2021/05/22 08:27:43;;;;;;;5.05;1.77;;;13.20;99.90;;;;;;5036348;28;20663;-78
2021/05/22 08:30:11;;;;;;;3.72;1.25;;;13.20;99.90;;;;;;5033841;28;20192;-78
2021/05/22 08:32:39;;;;;;;3.00;1.00;;;13.10;99.90;;;;;;5019842;28;20634;-79
2021/05/22 08:35:07;;;;;;;2.13;1.20;;;13.10;99.90;;;;;;5013401;28;20223;-79
2021/05/22 08:37:34;;;;;;;5.47;1.23;;;13.20;99.90;;;;;;5034198;28;20717;-79
2021/05/22 08:40:00;;;;;;;3.55;1.50;;;13.10;99.90;;;;;;5022975;28;20196;-79
2021/05/22 08:42:28;;;;;;;2.83;1.77;;;13.10;99.90;;;;;;5019024;28;20213;-79
2021/05/22 08:45:07;;;;;;;1.77;1.17;;;13.00;99.90;;;;;;5037056;28;20289;-78
2021/05/22 08:47:36;;;;;;;4.68;1.30;;;12.80;99.90;;;;;;5027621;28;20265;-78
2021/05/22 08:50:05;;;;;;;2.95;1.95;;;12.60;99.90;;;;;;5015421;28;20196;-78
2021/05/22 08:52:33;;;;;;;5.13;1.10;;;12.50;99.90;;;;;;5032636;28;20192;-78
2021/05/22 08:55:00;;;;;;;3.88;1.52;;;12.30;99.90;;;;;;5034558;28;20591;-79
2021/05/22 08:57:27;;;;;;;5.78;1.80;;;12.10;99.90;;;;;;5025911;28;20205;-79
2021/05/22 08:59:53;;;;;;;2.08;1.02;;;12.00;99.90;;;;;;5021326;28;20204;-77
2021/05/22 09:02:22;;;;;;;3.58;1.50;;;12.00;99.90;;;;;;5026460;28;20223;-76
2021/05/22 09:05:15;;;;;;;1.65;1.15;;;11.90;99.90;;;;;;5028685;28;20250;-77
2021/05/22 09:07:43;;;;;;;6.28;1.58;;;12.00;99.90;;;;;;5023762;28;20203;-78
2021/05/22 09:10:18;;;;;;;3.58;0.90;;;12.00;99.90;;;;;;5030465;28;20192;-77
2021/05/22 09:12:46;;;;;;;2.00;1.48;;;12.00;99.90;;;;;;5027414;28;20204;-77
2021/05/22 09:15:14;;;;;;;3.83;1.55;;;12.20;99.90;;;;;;5029209;28;20300;-79
2021/05/22 09:17:47;;;;;;;2.58;1.33;;;12.40;99.90;;;;;;5018900;28;20196;-76
2021/05/22 09:20:18;;;;;;;4.50;1.85;;;12.30;99.90;;;;;;5037241;28;20572;-78
2021/05/22 09:22:54;;;;;;;3.28;1.75;;;12.40;99.90;;;;;;5034739;28;20212;-78
2021/05/22 09:25:21;;;;;;;2.88;1.52;;;12.70;99.90;;;;;;5033966;28;20196;-77
2021/05/22 09:27:47;;;;;;;2.00;1.30;;;12.90;99.90;;;;;;5029488;28;20189;-77
2021/05/22 09:30:17;;;;;;;3.15;1.23;;;13.10;99.90;;;;;;5018467;28;20197;-77
2021/05/22 09:32:45;;;;;;;2.30;0.98;;;13.20;99.90;;;;;;5015955;28;20604;-77
2021/05/22 09:35:16;;;;;;;1.90;1.05;;;13.10;99.90;;;;;;5022555;28;20315;-77
2021/05/22 09:37:52;;;;;;;4.95;1.02;;;13.20;99.90;;;;;;5036376;28;20308;-78
2021/05/22 09:40:22;;;;;;;6.35;1.23;;;13.40;99.90;;;;;;5035056;28;20188;-78
2021/05/22 09:42:49;;;;;;;2.30;1.08;;;13.30;99.90;;;;;;5034320;28;20725;-77
2021/05/22 09:45:31;;;;;;;2.92;1.48;;;13.30;99.90;;;;;;5025007;28;20239;-77
2021/05/22 09:48:08;;;;;;;2.05;1.00;;;13.10;99.90;;;;;;5031983;28;20192;-77
2021/05/22 09:50:38;;;;;;;1.10;0.88;;;13.10;99.90;;;;;;5035696;28;20274;-78
2021/05/22 09:53:23;;;;;;;1.35;1.23;;;13.10;99.90;;;;;;5016854;28;20197;-77
2021/05/22 09:56:18;;;;;;;1.45;1.10;;;12.90;99.90;;;;;;5020664;28;20251;-77
2021/05/22 09:58:47;;;;;;;1.27;1.08;;;12.90;99.90;;;;;;5024267;28;20322;-76
2021/05/22 10:01:16;;;;;;;0.98;0.90;;;12.90;99.90;;;;;;5033882;28;20299;-80
2021/05/22 10:03:43;;;;;;;6.78;1.70;;;12.80;99.90;;;;;;5031758;28;20234;-81
2021/05/22 10:06:13;;;;;;;3.30;1.60;;;12.80;99.90;;;;;;5042978;28;20200;-81
2021/05/22 10:08:40;;;;;;;3.20;2.33;;;12.70;99.90;;;;;;5034983;28;20208;-81
2021/05/22 10:11:07;;;;;;;3.33;1.30;;;12.70;99.90;;;;;;5039132;28;20199;-81
2021/05/22 10:13:37;;;;;;;1.20;1.10;;;12.70;99.90;;;;;;5032553;28;20304;-80
2021/05/22 10:16:07;;;;;;;2.15;1.30;;;12.70;99.90;;;;;;5038267;28;20200;-79
2021/05/22 10:18:34;;;;;;;2.47;1.33;;;12.40;99.90;;;;;;5023405;28;20197;-77
2021/05/22 10:21:04;;;;;;;1.35;1.20;;;12.40;99.90;;;;;;5032994;28;20203;-76
2021/05/22 10:23:31;;;;;;;10.35;2.38;;;12.30;99.90;;;;;;5021311;28;20239;-76
2021/05/22 10:25:59;;;;;;;3.75;1.60;;;12.30;99.90;;;;;;5021145;28;20195;-77
2021/05/22 10:28:27;;;;;;;2.22;1.20;;;12.20;99.90;;;;;;5026966;28;20188;-76
2021/05/22 10:30:54;;;;;;;3.83;1.52;;;12.20;99.90;;;;;;5030891;28;20242;-77
2021/05/22 10:33:21;;;;;;;1.58;1.13;;;12.10;99.90;;;;;;5018506;28;20213;-77
2021/05/22 10:35:49;;;;;;;2.63;1.42;;;12.30;99.90;;;;;;5033133;28;20567;-78
2021/05/22 10:38:41;;;;;;;0.90;0.82;;;12.30;99.90;;;;;;5026307;28;20208;-77
2021/05/22 10:41:11;;;;;;;1.77;1.50;;;12.30;99.90;;;;;;5025214;28;20548;-77
2021/05/22 10:43:46;;;;;;;2.78;1.13;;;12.30;99.90;;;;;;5024734;28;20247;-77
2021/05/22 10:46:15;;;;;;;2.80;1.10;;;12.30;99.90;;;;;;5006711;28;20196;-78
2021/05/22 10:48:59;;;;;;;1.85;0.85;;;12.30;99.90;;;;;;5024351;28;20352;-77
2021/05/22 10:51:34;;;;;;;1.48;1.38;;;12.20;99.90;;;;;;5024134;28;20200;-77
2021/05/22 10:54:09;;;;;;;3.55;1.17;;;12.30;99.90;;;;;;5021415;28;20714;-77
2021/05/22 10:57:02;;;;;;;0.90;0.90;;;12.30;99.90;;;;;;5026336;28;20565;-77
2021/05/22 10:59:29;;;;;;;0.98;0.90;;;12.40;99.90;;;;;;5024863;28;20188;-77
2021/05/22 11:01:56;;;;;;;0.73;0.70;;;12.50;99.90;;;;;;5024096;28;20298;-77
2021/05/22 11:04:35;;;;;;;1.85;0.95;;;12.60;99.90;;;;;;5024224;28;20291;-77
2021/05/22 11:07:20;;;;;;;1.85;0.88;;;12.40;99.90;;;;;;5020855;28;20197;-77
2021/05/22 11:09:56;;;;;;;0.85;0.70;;;12.40;99.90;;;;;;5034502;28;20208;-77
2021/05/22 11:12:43;;;;;;;1.67;0.90;;;12.40;99.90;;;;;;5022856;28;20291;-77
2021/05/22 11:15:45;;;;;;;1.20;1.08;;;12.40;99.90;;;;;;5035699;28;20227;-77
2021/05/22 11:18:14;;;;;;;2.03;1.17;;;12.20;99.90;;;;;;5046290;28;20222;-77
2021/05/22 11:20:43;;;;;;;9.30;1.15;;;12.10;99.90;;;;;;5039868;28;20204;-78
2021/05/22 11:23:10;;;;;;;2.28;1.00;;;11.90;99.90;;;;;;5035929;28;20216;-78
2021/05/22 11:25:49;;;;;;;2.15;0.77;;;12.00;99.90;;;;;;5032891;28;20286;-77
2021/05/22 11:28:20;;;;;;;0.82;0.50;;;12.00;99.90;;;;;;5040758;28;20203;-77
2021/05/22 11:30:52;;;;;;;0.70;0.70;;;12.10;99.90;;;;;;5025980;28;20204;-77
2021/05/22 11:33:28;;;;;;;3.55;0.70;;;12.00;99.90;;;;;;5017782;28;20213;-79
2021/05/22 11:35:57;;;;;;;1.13;0.77;;;11.90;99.90;;;;;;5025809;28;20192;-78
2021/05/22 11:38:38;;;;;;;1.40;1.30;;;12.00;99.90;;;;;;5027856;28;20641;-77
2021/05/22 11:41:10;;;;;;;0.95;0.95;;;11.90;99.90;;;;;;5014876;28;20208;-77
2021/05/22 11:43:41;;;;;;;0.88;0.82;;;12.10;99.90;;;;;;5019024;28;20235;-81
2021/05/22 11:46:10;;;;;;;0.90;0.90;;;12.10;99.90;;;;;;5021007;28;20208;-78
2021/05/22 11:48:40;;;;;;;1.08;0.70;;;12.10;99.90;;;;;;5035651;28;20254;-80
2021/05/22 11:51:20;;;;;;;0.82;0.75;;;12.10;99.90;;;;;;5034523;28;20229;-78
2021/05/22 11:53:53;;;;;;;1.20;0.82;;;12.10;99.90;;;;;;5024160;28;20232;-77
2021/05/22 11:56:21;;;;;;;2.22;0.98;;;12.20;99.90;;;;;;5017759;28;20686;-77
2021/05/22 11:58:49;;;;;;;1.13;1.02;;;12.10;99.90;;;;;;5017321;28;20211;-77
2021/05/22 12:01:18;;;;;;;0.95;0.82;;;12.20;99.90;;;;;;5021687;28;20271;-77
2021/05/22 12:03:46;;;;;;;0.93;0.60;;;12.30;99.90;;;;;;5023996;28;20224;-77
2021/05/22 12:06:28;;;;;;;1.45;0.73;;;12.30;99.90;;;;;;5030396;28;20203;-76
2021/05/22 12:09:00;;;;;;;1.13;0.90;;;12.40;99.90;;;;;;5025453;28;20330;-78
2021/05/22 12:11:30;;;;;;;1.95;0.73;;;12.40;99.90;;;;;;5027669;28;20471;-77
2021/05/22 12:13:59;;;;;;;1.30;0.80;;;12.40;99.90;;;;;;5030665;28;20232;-77
2021/05/22 12:16:26;;;;;;;2.15;0.88;;;12.40;99.90;;;;;;5024882;28;20200;-76
2021/05/22 12:18:54;;;;;;;0.90;0.80;;;12.60;99.90;;;;;;5039567;28;20227;-77
2021/05/22 12:21:22;;;;;;;1.88;0.90;;;12.80;99.90;;;;;;5030377;28;20279;-77
2021/05/22 12:23:51;;;;;;;2.35;1.00;;;12.60;99.90;;;;;;5027098;28;20224;-77
2021/05/22 12:26:18;;;;;;;2.08;1.20;;;12.50;99.90;;;;;;5033170;28;20212;-77
2021/05/22 12:28:46;;;;;;;2.85;1.17;;;12.40;99.90;;;;;;5030554;28;20291;-77
2021/05/22 12:31:13;;;;;;;1.85;0.70;;;12.20;99.90;;;;;;5021990;28;20201;-79
2021/05/22 12:33:40;;;;;;;0.68;0.68;;;12.10;99.90;;;;;;5025870;28;20725;-79
2021/05/22 12:36:08;;;;;;;1.55;1.45;;;12.10;99.90;;;;;;5020950;28;20224;-78
2021/05/22 12:38:37;;;;;;;1.42;1.33;;;12.10;99.90;;;;;;5031537;28;20204;-77
2021/05/22 12:41:04;;;;;;;1.67;1.20;;;12.10;99.90;;;;;;5030131;28;20200;-77
2021/05/22 12:43:44;;;;;;;1.40;0.75;;;12.30;99.90;;;;;;5026742;28;20216;-76
2021/05/22 12:46:26;;;;;;;0.88;0.88;;;12.40;99.90;;;;;;5029249;28;20202;-78
2021/05/22 12:49:06;;;;;;;0.63;0.63;;;12.30;99.90;;;;;;5018330;28;20220;-77
2021/05/22 12:51:33;;;;;;;0.70;0.70;;;12.30;99.90;;;;;;5022133;28;20200;-76
2021/05/22 12:54:31;;;;;;;1.33;1.23;;;12.30;99.90;;;;;;5028945;28;20208;-77
2021/05/22 12:57:03;;;;;;;1.88;0.93;;;12.30;99.90;;;;;;5026986;28;20206;-77
2021/05/22 12:59:31;;;;;;;1.58;1.48;;;12.20;99.90;;;;;;5029575;28;20235;-78
2021/05/22 13:02:20;;;;;;;1.40;1.23;;;12.30;99.90;;;;;;5021547;28;20200;-77
2021/05/22 13:04:48;;;;;;;0.88;0.73;;;12.30;99.90;;;;;;5021011;28;20726;-77
2021/05/22 13:07:16;;;;;;;1.95;1.45;;;12.30;99.90;;;;;;5017672;28;20235;-77
2021/05/22 13:10:03;;;;;;;1.80;0.88;;;12.20;99.90;;;;;;5026129;28;20667;-77
2021/05/22 13:12:35;;;;;;;1.70;1.00;;;12.00;99.90;;;;;;5015599;28;20188;-75
2021/05/22 13:15:05;;;;;;;1.23;1.10;;;12.10;99.90;;;;;;5035722;28;20219;-75